sensor_id;sensor_type;location;lat;lon;timestamp;pressure;altitude;pressure_sealevel;temperature;humidity
49709;BME280;35601;55.902;13.606;2023-02-10T00:00:13;101449.37;;;-0.25;85.00
49709;BME280;35601;55.902;13.606;2023-02-10T00:02:37;101452.61;;;-0.07;84.12
49709;BME280;35601;55.902;13.606;2023-02-10T00:05:03;101447.80;;;-0.16;84.66
49709;BME280;35601;55.902;13.606;2023-02-10T00:07:28;101447.29;;;-0.32;84.81
49709;BME280;35601;55.902;13.606;2023-02-10T00:09:53;101435.21;;;-0.10;84.88
49709;BME280;35601;55.902;13.606;2023-02-10T00:12:18;101438.42;;;-0.46;84.65
49709;BME280;35601;55.902;13.606;2023-02-10T00:14:43;101435.55;;;-0.01;84.97
49709;BME280;35601;55.902;13.606;2023-02-10T00:17:08;101434.85;;;-0.45;85.09
49709;BME280;35601;55.902;13.606;2023-02-10T00:19:34;101438.77;;;-0.31;85.67
49709;BME280;35601;55.902;13.606;2023-02-10T00:22:00;101442.51;;;-0.10;85.31
49709;BME280;35601;55.902;13.606;2023-02-10T00:24:24;101441.75;;;0.01;84.90
49709;BME280;35601;55.902;13.606;2023-02-10T00:26:50;101440.94;;;-0.17;85.58
49709;BME280;35601;55.902;13.606;2023-02-10T00:29:16;101447.82;;;-0.11;84.79
49709;BME280;35601;55.902;13.606;2023-02-10T00:31:41;101452.27;;;0.07;84.92
49709;BME280;35601;55.902;13.606;2023-02-10T00:34:06;101455.25;;;0.22;84.61
49709;BME280;35601;55.902;13.606;2023-02-10T00:36:31;101453.87;;;0.12;83.93
49709;BME280;35601;55.902;13.606;2023-02-10T00:38:57;101446.84;;;0.29;84.51
49709;BME280;35601;55.902;13.606;2023-02-10T00:41:23;101454.40;;;-0.02;84.72
49709;BME280;35601;55.902;13.606;2023-02-10T00:43:48;101452.55;;;0.25;84.76
49709;BME280;35601;55.902;13.606;2023-02-10T00:46:15;101456.98;;;0.11;84.63
49709;BME280;35601;55.902;13.606;2023-02-10T00:48:40;101465.08;;;0.17;84.42
49709;BME280;35601;55.902;13.606;2023-02-10T00:51:06;101477.28;;;0.18;84.74
49709;BME280;35601;55.902;13.606;2023-02-10T00:53:31;101481.06;;;0.21;84.43
49709;BME280;35601;55.902;13.606;2023-02-10T00:55:56;101494.25;;;0.30;84.20
49709;BME280;35601;55.902;13.606;2023-02-10T00:58:21;101491.82;;;0.41;84.79
49709;BME280;35601;55.902;13.606;2023-02-10T01:00:47;101481.74;;;0.55;84.52
49709;BME280;35601;55.902;13.606;2023-02-10T01:03:11;101479.26;;;0.84;84.38
49709;BME280;35601;55.902;13.606;2023-02-10T01:05:37;101479.70;;;0.57;83.63
49709;BME280;35601;55.902;13.606;2023-02-10T01:08:02;101480.92;;;0.55;83.65
49709;BME280;35601;55.902;13.606;2023-02-10T01:10:28;101475.53;;;0.66;83.49
49709;BME280;35601;55.902;13.606;2023-02-10T01:12:53;101479.62;;;0.37;83.69
49709;BME280;35601;55.902;13.606;2023-02-10T01:15:18;101479.26;;;0.42;84.20
49709;BME280;35601;55.902;13.606;2023-02-10T01:17:44;101477.60;;;0.66;84.41
49709;BME280;35601;55.902;13.606;2023-02-10T01:20:09;101479.39;;;0.52;84.15
49709;BME280;35601;55.902;13.606;2023-02-10T01:22:35;101480.90;;;-0.77;83.60
49709;BME280;35601;55.902;13.606;2023-02-10T01:24:59;101474.37;;;0.35;82.88
49709;BME280;35601;55.902;13.606;2023-02-10T01:27:24;101476.68;;;0.28;83.29
49709;BME280;35601;55.902;13.606;2023-02-10T01:29:49;101479.00;;;0.64;83.95
49709;BME280;35601;55.902;13.606;2023-02-10T01:32:15;101477.39;;;0.63;83.80
49709;BME280;35601;55.902;13.606;2023-02-10T01:34:40;101476.95;;;0.69;83.28
49709;BME280;35601;55.902;13.606;2023-02-10T01:37:06;101483.07;;;0.58;82.71
49709;BME280;35601;55.902;13.606;2023-02-10T01:39:31;101480.29;;;0.71;83.29
49709;BME280;35601;55.902;13.606;2023-02-10T01:41:56;101470.59;;;0.53;84.01
49709;BME280;35601;55.902;13.606;2023-02-10T01:46:48;101480.82;;;0.01;84.39
49709;BME280;35601;55.902;13.606;2023-02-10T01:49:16;101483.49;;;0.58;84.99
49709;BME280;35601;55.902;13.606;2023-02-10T01:51:42;101480.22;;;0.22;85.64
49709;BME280;35601;55.902;13.606;2023-02-10T01:54:06;101485.42;;;0.10;86.28
49709;BME280;35601;55.902;13.606;2023-02-10T01:56:31;101475.38;;;0.15;86.18
49709;BME280;35601;55.902;13.606;2023-02-10T01:58:56;101472.28;;;0.11;86.00
49709;BME280;35601;55.902;13.606;2023-02-10T02:01:22;101471.68;;;0.34;86.00
49709;BME280;35601;55.902;13.606;2023-02-10T02:03:47;101463.94;;;0.09;85.78
49709;BME280;35601;55.902;13.606;2023-02-10T02:06:12;101466.85;;;0.28;86.43
49709;BME280;35601;55.902;13.606;2023-02-10T02:08:39;101475.11;;;-0.02;86.90
49709;BME280;35601;55.902;13.606;2023-02-10T02:11:12;101473.66;;;-0.09;87.10
49709;BME280;35601;55.902;13.606;2023-02-10T02:13:42;101483.67;;;-0.29;88.01
49709;BME280;35601;55.902;13.606;2023-02-10T02:15:57;101493.03;;;-0.31;87.99
49709;BME280;35601;55.902;13.606;2023-02-10T02:18:25;101488.80;;;-0.08;87.32
49709;BME280;35601;55.902;13.606;2023-02-10T02:21:02;101487.71;;;0.14;86.58
49709;BME280;35601;55.902;13.606;2023-02-10T02:23:17;101494.74;;;0.19;86.30
49709;BME280;35601;55.902;13.606;2023-02-10T02:25:52;101491.91;;;0.09;86.59
49709;BME280;35601;55.902;13.606;2023-02-10T02:28:15;101504.51;;;0.02;87.03
49709;BME280;35601;55.902;13.606;2023-02-10T02:30:45;101507.91;;;0.09;86.50
49709;BME280;35601;55.902;13.606;2023-02-10T02:32:57;101506.83;;;0.15;87.45
49709;BME280;35601;55.902;13.606;2023-02-10T02:35:24;101507.49;;;-0.01;87.01
49709;BME280;35601;55.902;13.606;2023-02-10T02:37:46;101512.84;;;0.02;86.95
49709;BME280;35601;55.902;13.606;2023-02-10T02:40:11;101513.02;;;0.16;86.29
49709;BME280;35601;55.902;13.606;2023-02-10T02:42:36;101523.38;;;0.10;86.46
49709;BME280;35601;55.902;13.606;2023-02-10T02:45:05;101517.84;;;0.21;86.38
49709;BME280;35601;55.902;13.606;2023-02-10T02:47:38;101523.07;;;0.47;85.50
49709;BME280;35601;55.902;13.606;2023-02-10T02:49:58;101529.45;;;0.52;85.00
49709;BME280;35601;55.902;13.606;2023-02-10T02:52:23;101528.80;;;0.52;84.92
49709;BME280;35601;55.902;13.606;2023-02-10T02:54:46;101530.16;;;0.47;84.89
49709;BME280;35601;55.902;13.606;2023-02-10T02:57:12;101528.60;;;0.47;85.09
49709;BME280;35601;55.902;13.606;2023-02-10T02:59:39;101534.70;;;0.50;84.87
49709;BME280;35601;55.902;13.606;2023-02-10T03:02:02;101533.44;;;0.47;84.90
49709;BME280;35601;55.902;13.606;2023-02-10T03:04:27;101534.44;;;0.52;84.85
49709;BME280;35601;55.902;13.606;2023-02-10T03:06:50;101530.53;;;0.47;84.74
49709;BME280;35601;55.902;13.606;2023-02-10T03:09:16;101534.64;;;0.50;84.66
49709;BME280;35601;55.902;13.606;2023-02-10T03:11:42;101526.40;;;0.42;83.90
49709;BME280;35601;55.902;13.606;2023-02-10T03:14:08;101523.96;;;0.51;84.03
49709;BME280;35601;55.902;13.606;2023-02-10T03:16:34;101520.94;;;0.19;83.95
49709;BME280;35601;55.902;13.606;2023-02-10T03:19:00;101522.17;;;0.07;84.69
49709;BME280;35601;55.902;13.606;2023-02-10T03:21:25;101521.35;;;0.22;84.28
49709;BME280;35601;55.902;13.606;2023-02-10T03:23:50;101524.69;;;0.24;83.75
49709;BME280;35601;55.902;13.606;2023-02-10T03:26:16;101522.37;;;0.28;83.45
49709;BME280;35601;55.902;13.606;2023-02-10T03:28:41;101529.05;;;0.31;83.48
49709;BME280;35601;55.902;13.606;2023-02-10T03:31:08;101528.83;;;0.30;83.14
49709;BME280;35601;55.902;13.606;2023-02-10T03:33:33;101531.92;;;0.40;82.69
49709;BME280;35601;55.902;13.606;2023-02-10T03:35:59;101532.31;;;0.65;82.46
49709;BME280;35601;55.902;13.606;2023-02-10T03:38:24;101541.88;;;0.54;81.69
49709;BME280;35601;55.902;13.606;2023-02-10T03:40:50;101540.22;;;0.67;81.28
49709;BME280;35601;55.902;13.606;2023-02-10T03:43:14;101538.23;;;0.74;80.85
49709;BME280;35601;55.902;13.606;2023-02-10T03:45:40;101542.00;;;0.39;81.26
49709;BME280;35601;55.902;13.606;2023-02-10T03:48:05;101543.29;;;0.64;80.67
49709;BME280;35601;55.902;13.606;2023-02-10T03:50:30;101554.47;;;0.65;80.56
49709;BME280;35601;55.902;13.606;2023-02-10T03:52:56;101559.88;;;0.51;80.31
49709;BME280;35601;55.902;13.606;2023-02-10T03:55:22;101559.06;;;0.74;79.92
49709;BME280;35601;55.902;13.606;2023-02-10T03:57:47;101563.46;;;0.56;79.86
49709;BME280;35601;55.902;13.606;2023-02-10T04:00:14;101556.98;;;0.83;79.73
49709;BME280;35601;55.902;13.606;2023-02-10T04:02:39;101554.45;;;0.52;79.41
49709;BME280;35601;55.902;13.606;2023-02-10T04:05:05;101565.57;;;0.75;79.95
49709;BME280;35601;55.902;13.606;2023-02-10T04:07:31;101561.74;;;0.73;80.19
49709;BME280;35601;55.902;13.606;2023-02-10T04:09:56;101558.28;;;0.64;80.23
49709;BME280;35601;55.902;13.606;2023-02-10T04:12:21;101558.72;;;0.78;79.80
49709;BME280;35601;55.902;13.606;2023-02-10T04:14:46;101549.61;;;0.65;79.26
49709;BME280;35601;55.902;13.606;2023-02-10T04:17:12;101558.29;;;0.52;79.65
49709;BME280;35601;55.902;13.606;2023-02-10T04:19:37;101558.73;;;0.73;79.15
49709;BME280;35601;55.902;13.606;2023-02-10T04:22:03;101554.83;;;0.38;79.21
49709;BME280;35601;55.902;13.606;2023-02-10T04:24:29;101562.39;;;0.87;78.40
49709;BME280;35601;55.902;13.606;2023-02-10T04:26:54;101561.81;;;0.81;78.18
49709;BME280;35601;55.902;13.606;2023-02-10T04:29:20;101567.46;;;0.66;77.89
49709;BME280;35601;55.902;13.606;2023-02-10T04:31:45;101573.46;;;0.69;77.51
49709;BME280;35601;55.902;13.606;2023-02-10T04:34:10;101573.37;;;1.06;77.67
49709;BME280;35601;55.902;13.606;2023-02-10T04:36:36;101569.49;;;0.87;77.32
49709;BME280;35601;55.902;13.606;2023-02-10T04:39:02;101566.03;;;0.65;77.34
49709;BME280;35601;55.902;13.606;2023-02-10T04:41:27;101575.43;;;0.83;77.15
49709;BME280;35601;55.902;13.606;2023-02-10T04:43:53;101575.80;;;0.65;76.99
49709;BME280;35601;55.902;13.606;2023-02-10T04:46:18;101577.16;;;0.72;76.15
49709;BME280;35601;55.902;13.606;2023-02-10T04:48:44;101574.05;;;0.84;76.36
49709;BME280;35601;55.902;13.606;2023-02-10T04:51:11;101582.93;;;0.68;76.28
49709;BME280;35601;55.902;13.606;2023-02-10T04:53:36;101584.33;;;0.45;76.72
49709;BME280;35601;55.902;13.606;2023-02-10T04:56:01;101582.79;;;0.03;77.06
49709;BME280;35601;55.902;13.606;2023-02-10T04:58:26;101586.47;;;0.11;76.91
49709;BME280;35601;55.902;13.606;2023-02-10T05:00:54;101585.38;;;0.43;76.33
49709;BME280;35601;55.902;13.606;2023-02-10T05:03:16;101588.52;;;0.62;75.59
49709;BME280;35601;55.902;13.606;2023-02-10T05:05:42;101588.62;;;0.67;75.38
49709;BME280;35601;55.902;13.606;2023-02-10T05:08:07;101592.28;;;0.68;74.97
49709;BME280;35601;55.902;13.606;2023-02-10T05:10:33;101595.63;;;0.42;75.53
49709;BME280;35601;55.902;13.606;2023-02-10T05:12:58;101600.47;;;0.53;75.21
49709;BME280;35601;55.902;13.606;2023-02-10T05:15:24;101598.09;;;-0.08;74.78
49709;BME280;35601;55.902;13.606;2023-02-10T05:17:49;101601.06;;;0.47;74.27
49709;BME280;35601;55.902;13.606;2023-02-10T05:20:14;101608.68;;;0.34;74.36
49709;BME280;35601;55.902;13.606;2023-02-10T05:22:40;101619.26;;;0.41;74.62
49709;BME280;35601;55.902;13.606;2023-02-10T05:25:07;101619.97;;;0.11;75.54
49709;BME280;35601;55.902;13.606;2023-02-10T05:27:31;101628.21;;;0.18;75.20
49709;BME280;35601;55.902;13.606;2023-02-10T05:29:57;101631.14;;;0.22;75.04
49709;BME280;35601;55.902;13.606;2023-02-10T05:32:22;101630.92;;;0.21;75.16
49709;BME280;35601;55.902;13.606;2023-02-10T05:34:48;101633.15;;;0.24;74.84
49709;BME280;35601;55.902;13.606;2023-02-10T05:37:14;101633.78;;;0.23;75.05
49709;BME280;35601;55.902;13.606;2023-02-10T05:39:39;101630.28;;;0.27;75.10
49709;BME280;35601;55.902;13.606;2023-02-10T05:42:05;101633.37;;;0.30;75.05
49709;BME280;35601;55.902;13.606;2023-02-10T05:44:30;101638.33;;;0.02;75.29
49709;BME280;35601;55.902;13.606;2023-02-10T05:46:56;101643.37;;;0.21;75.12
49709;BME280;35601;55.902;13.606;2023-02-10T05:49:21;101640.56;;;0.09;75.02
49709;BME280;35601;55.902;13.606;2023-02-10T05:51:47;101646.90;;;-0.01;75.39
49709;BME280;35601;55.902;13.606;2023-02-10T05:54:12;101647.62;;;-0.09;75.36
49709;BME280;35601;55.902;13.606;2023-02-10T05:56:37;101653.50;;;-0.11;75.39
49709;BME280;35601;55.902;13.606;2023-02-10T05:59:03;101659.02;;;-0.25;75.12
49709;BME280;35601;55.902;13.606;2023-02-10T06:01:27;101654.28;;;-0.22;74.77
49709;BME280;35601;55.902;13.606;2023-02-10T06:03:53;101666.16;;;-0.16;74.35
49709;BME280;35601;55.902;13.606;2023-02-10T06:06:19;101666.34;;;0.00;74.12
49709;BME280;35601;55.902;13.606;2023-02-10T06:08:45;101671.84;;;-0.22;73.90
49709;BME280;35601;55.902;13.606;2023-02-10T06:11:11;101680.26;;;-0.17;73.14
49709;BME280;35601;55.902;13.606;2023-02-10T06:13:37;101687.45;;;-0.13;72.66
49709;BME280;35601;55.902;13.606;2023-02-10T06:16:02;101690.15;;;-0.20;72.65
49709;BME280;35601;55.902;13.606;2023-02-10T06:18:26;101691.42;;;0.02;72.46
49709;BME280;35601;55.902;13.606;2023-02-10T06:20:52;101691.79;;;-0.09;71.76
49709;BME280;35601;55.902;13.606;2023-02-10T06:23:17;101695.61;;;-0.22;71.79
49709;BME280;35601;55.902;13.606;2023-02-10T06:25:43;101700.77;;;-0.21;71.74
49709;BME280;35601;55.902;13.606;2023-02-10T06:28:08;101703.78;;;-0.17;71.41
49709;BME280;35601;55.902;13.606;2023-02-10T06:30:34;101702.40;;;-0.15;70.97
49709;BME280;35601;55.902;13.606;2023-02-10T06:32:59;101709.21;;;-0.11;70.57
49709;BME280;35601;55.902;13.606;2023-02-10T06:35:24;101708.29;;;-0.07;70.29
49709;BME280;35601;55.902;13.606;2023-02-10T06:37:50;101714.10;;;-0.39;70.40
49709;BME280;35601;55.902;13.606;2023-02-10T06:40:16;101712.13;;;-0.32;70.82
49709;BME280;35601;55.902;13.606;2023-02-10T06:42:41;101715.01;;;-0.24;70.44
49709;BME280;35601;55.902;13.606;2023-02-10T06:45:06;101719.79;;;-0.28;70.86
49709;BME280;35601;55.902;13.606;2023-02-10T06:47:31;101724.59;;;-0.18;70.29
49709;BME280;35601;55.902;13.606;2023-02-10T06:49:56;101728.16;;;-0.28;70.76
49709;BME280;35601;55.902;13.606;2023-02-10T06:52:22;101734.85;;;-0.30;70.64
49709;BME280;35601;55.902;13.606;2023-02-10T06:54:47;101739.29;;;-0.18;70.30
49709;BME280;35601;55.902;13.606;2023-02-10T06:57:13;101743.94;;;-0.48;70.11
49709;BME280;35601;55.902;13.606;2023-02-10T06:59:38;101746.25;;;-0.24;70.18
49709;BME280;35601;55.902;13.606;2023-02-10T07:02:04;101747.77;;;-0.27;70.43
49709;BME280;35601;55.902;13.606;2023-02-10T07:04:31;101740.52;;;-0.18;69.89
49709;BME280;35601;55.902;13.606;2023-02-10T07:06:55;101740.34;;;-0.44;70.10
49709;BME280;35601;55.902;13.606;2023-02-10T07:09:20;101741.94;;;-0.16;69.78
49709;BME280;35601;55.902;13.606;2023-02-10T07:11:47;101740.76;;;-0.20;69.69
49709;BME280;35601;55.902;13.606;2023-02-10T07:14:11;101747.26;;;-0.20;69.90
49709;BME280;35601;55.902;13.606;2023-02-10T07:16:37;101753.20;;;-0.46;69.93
49709;BME280;35601;55.902;13.606;2023-02-10T07:19:02;101753.07;;;-0.19;69.92
49709;BME280;35601;55.902;13.606;2023-02-10T07:21:28;101757.40;;;-0.42;70.79
49709;BME280;35601;55.902;13.606;2023-02-10T07:23:53;101753.87;;;-0.32;70.40
49709;BME280;35601;55.902;13.606;2023-02-10T07:26:18;101751.16;;;-0.54;70.46
49709;BME280;35601;55.902;13.606;2023-02-10T07:28:45;101753.75;;;-0.41;70.81
49709;BME280;35601;55.902;13.606;2023-02-10T07:31:09;101757.77;;;-0.38;70.74
49709;BME280;35601;55.902;13.606;2023-02-10T07:33:35;101752.25;;;-0.29;70.65
49709;BME280;35601;55.902;13.606;2023-02-10T07:36:01;101747.54;;;-0.24;70.47
49709;BME280;35601;55.902;13.606;2023-02-10T07:38:26;101751.00;;;-0.18;70.45
49709;BME280;35601;55.902;13.606;2023-02-10T07:40:51;101757.88;;;-0.45;70.70
49709;BME280;35601;55.902;13.606;2023-02-10T07:43:16;101770.71;;;-0.16;70.58
49709;BME280;35601;55.902;13.606;2023-02-10T07:45:41;101781.46;;;-0.35;70.31
49709;BME280;35601;55.902;13.606;2023-02-10T07:48:07;101791.13;;;-0.14;70.39
49709;BME280;35601;55.902;13.606;2023-02-10T07:50:32;101800.23;;;-0.04;70.37
49709;BME280;35601;55.902;13.606;2023-02-10T07:52:58;101800.99;;;-0.19;70.10
49709;BME280;35601;55.902;13.606;2023-02-10T07:55:23;101795.02;;;-0.35;70.08
49709;BME280;35601;55.902;13.606;2023-02-10T07:57:51;101792.83;;;-0.30;70.09
49709;BME280;35601;55.902;13.606;2023-02-10T08:00:15;101787.04;;;-0.00;70.12
49709;BME280;35601;55.902;13.606;2023-02-10T08:02:40;101785.44;;;0.05;70.16
49709;BME280;35601;55.902;13.606;2023-02-10T08:05:06;101783.25;;;-0.18;70.10
49709;BME280;35601;55.902;13.606;2023-02-10T08:07:30;101791.00;;;0.16;70.03
49709;BME280;35601;55.902;13.606;2023-02-10T08:09:56;101795.14;;;0.22;69.73
49709;BME280;35601;55.902;13.606;2023-02-10T08:12:21;101802.95;;;0.09;69.79
49709;BME280;35601;55.902;13.606;2023-02-10T08:14:46;101808.62;;;0.35;69.57
49709;BME280;35601;55.902;13.606;2023-02-10T08:17:12;101809.83;;;0.14;69.58
49709;BME280;35601;55.902;13.606;2023-02-10T08:19:37;101809.59;;;0.36;69.66
49709;BME280;35601;55.902;13.606;2023-02-10T08:22:03;101807.65;;;0.20;69.82
49709;BME280;35601;55.902;13.606;2023-02-10T08:24:28;101808.36;;;0.64;70.25
49709;BME280;35601;55.902;13.606;2023-02-10T08:26:53;101810.78;;;0.45;70.23
49709;BME280;35601;55.902;13.606;2023-02-10T08:29:19;101814.34;;;0.56;70.75
49709;BME280;35601;55.902;13.606;2023-02-10T08:31:44;101815.33;;;0.82;70.93
49709;BME280;35601;55.902;13.606;2023-02-10T08:34:14;101822.67;;;0.32;71.29
49709;BME280;35601;55.902;13.606;2023-02-10T08:36:37;101827.16;;;0.50;71.50
49709;BME280;35601;55.902;13.606;2023-02-10T08:39:02;101831.02;;;0.58;71.77
49709;BME280;35601;55.902;13.606;2023-02-10T08:41:28;101838.36;;;0.66;71.49
49709;BME280;35601;55.902;13.606;2023-02-10T08:43:53;101847.02;;;0.66;71.79
49709;BME280;35601;55.902;13.606;2023-02-10T08:46:19;101851.28;;;0.63;71.77
49709;BME280;35601;55.902;13.606;2023-02-10T08:48:45;101858.34;;;0.93;71.98
49709;BME280;35601;55.902;13.606;2023-02-10T08:51:11;101863.34;;;0.75;72.12
49709;BME280;35601;55.902;13.606;2023-02-10T08:53:36;101858.41;;;0.81;71.78
49709;BME280;35601;55.902;13.606;2023-02-10T08:56:06;101859.51;;;0.78;72.11
49709;BME280;35601;55.902;13.606;2023-02-10T08:58:28;101860.91;;;0.78;71.55
49709;BME280;35601;55.902;13.606;2023-02-10T09:00:53;101872.80;;;0.89;71.60
49709;BME280;35601;55.902;13.606;2023-02-10T09:03:19;101876.38;;;1.26;71.55
49709;BME280;35601;55.902;13.606;2023-02-10T09:05:44;101875.71;;;0.99;71.58
49709;BME280;35601;55.902;13.606;2023-02-10T09:08:10;101874.89;;;1.08;71.74
49709;BME280;35601;55.902;13.606;2023-02-10T09:10:35;101878.16;;;1.12;71.62
49709;BME280;35601;55.902;13.606;2023-02-10T09:13:00;101877.56;;;1.22;71.28
49709;BME280;35601;55.902;13.606;2023-02-10T09:15:25;101876.89;;;1.20;71.60
49709;BME280;35601;55.902;13.606;2023-02-10T09:17:50;101876.63;;;1.07;71.36
49709;BME280;35601;55.902;13.606;2023-02-10T09:20:16;101876.37;;;1.32;71.86
49709;BME280;35601;55.902;13.606;2023-02-10T09:22:41;101874.60;;;1.16;72.38
49709;BME280;35601;55.902;13.606;2023-02-10T09:25:06;101876.49;;;0.99;72.78
49709;BME280;35601;55.902;13.606;2023-02-10T09:27:32;101876.78;;;1.36;72.62
49709;BME280;35601;55.902;13.606;2023-02-10T09:29:58;101885.75;;;1.45;72.77
49709;BME280;35601;55.902;13.606;2023-02-10T09:32:23;101890.80;;;1.50;72.91
49709;BME280;35601;55.902;13.606;2023-02-10T09:34:49;101888.06;;;1.50;73.13
49709;BME280;35601;55.902;13.606;2023-02-10T09:37:14;101892.97;;;1.20;73.08
49709;BME280;35601;55.902;13.606;2023-02-10T09:39:39;101890.73;;;1.70;73.23
49709;BME280;35601;55.902;13.606;2023-02-10T09:42:09;101889.99;;;1.36;73.48
49709;BME280;35601;55.902;13.606;2023-02-10T09:44:33;101888.53;;;1.53;73.43
49709;BME280;35601;55.902;13.606;2023-02-10T09:47:06;101889.87;;;1.52;73.91
49709;BME280;35601;55.902;13.606;2023-02-10T09:51:52;101894.27;;;1.57;73.75
49709;BME280;35601;55.902;13.606;2023-02-10T09:54:12;101900.61;;;2.03;73.22
49709;BME280;35601;55.902;13.606;2023-02-10T09:56:37;101897.87;;;1.55;73.22
49709;BME280;35601;55.902;13.606;2023-02-10T09:59:01;101895.35;;;2.05;73.63
49709;BME280;35601;55.902;13.606;2023-02-10T10:01:30;101890.59;;;1.61;74.00
49709;BME280;35601;55.902;13.606;2023-02-10T10:03:55;101883.26;;;1.79;73.74
49709;BME280;35601;55.902;13.606;2023-02-10T10:06:22;101875.72;;;1.92;73.48
49709;BME280;35601;55.902;13.606;2023-02-10T10:08:51;101876.05;;;1.86;73.54
49709;BME280;35601;55.902;13.606;2023-02-10T10:11:19;101874.88;;;2.01;73.11
49709;BME280;35601;55.902;13.606;2023-02-10T10:13:34;101877.49;;;1.98;73.08
49709;BME280;35601;55.902;13.606;2023-02-10T10:16:12;101879.08;;;2.30;72.63
49709;BME280;35601;55.902;13.606;2023-02-10T10:18:30;101878.14;;;2.42;72.16
49709;BME280;35601;55.902;13.606;2023-02-10T10:20:52;101876.40;;;2.56;71.50
49709;BME280;35601;55.902;13.606;2023-02-10T10:23:23;101880.72;;;2.82;71.03
49709;BME280;35601;55.902;13.606;2023-02-10T10:25:53;101884.29;;;2.92;70.45
49709;BME280;35601;55.902;13.606;2023-02-10T10:28:15;101885.88;;;2.82;70.04
49709;BME280;35601;55.902;13.606;2023-02-10T10:30:37;101885.67;;;3.03;70.00
49709;BME280;35601;55.902;13.606;2023-02-10T10:32:59;101880.80;;;3.32;69.34
49709;BME280;35601;55.902;13.606;2023-02-10T10:35:26;101873.06;;;3.51;69.83
49709;BME280;35601;55.902;13.606;2023-02-10T10:37:48;101870.98;;;3.19;69.17
49709;BME280;35601;55.902;13.606;2023-02-10T10:40:17;101862.79;;;3.23;70.24
49709;BME280;35601;55.902;13.606;2023-02-10T10:42:43;101865.85;;;3.07;69.46
49709;BME280;35601;55.902;13.606;2023-02-10T10:45:07;101869.95;;;3.06;70.08
49709;BME280;35601;55.902;13.606;2023-02-10T10:47:37;101870.88;;;3.34;69.52
49709;BME280;35601;55.902;13.606;2023-02-10T10:49:55;101873.52;;;3.33;69.58
49709;BME280;35601;55.902;13.606;2023-02-10T10:52:26;101877.80;;;3.64;69.51
49709;BME280;35601;55.902;13.606;2023-02-10T10:54:46;101872.08;;;3.53;69.52
49709;BME280;35601;55.902;13.606;2023-02-10T10:57:13;101867.94;;;3.70;69.43
49709;BME280;35601;55.902;13.606;2023-02-10T10:59:41;101868.23;;;3.58;68.86
49709;BME280;35601;55.902;13.606;2023-02-10T11:02:10;101860.56;;;3.45;68.53
49709;BME280;35601;55.902;13.606;2023-02-10T11:04:29;101859.00;;;3.62;69.27
49709;BME280;35601;55.902;13.606;2023-02-10T11:06:56;101859.99;;;3.67;68.91
49709;BME280;35601;55.902;13.606;2023-02-10T11:09:24;101863.99;;;3.87;67.94
49709;BME280;35601;55.902;13.606;2023-02-10T11:11:45;101865.60;;;3.82;65.73
49709;BME280;35601;55.902;13.606;2023-02-10T11:14:14;101866.46;;;3.98;65.20
49709;BME280;35601;55.902;13.606;2023-02-10T11:16:40;101852.58;;;4.00;64.43
49709;BME280;35601;55.902;13.606;2023-02-10T11:19:02;101862.71;;;3.74;64.70
49709;BME280;35601;55.902;13.606;2023-02-10T11:21:33;101858.33;;;3.54;63.95
49709;BME280;35601;55.902;13.606;2023-02-10T11:23:53;101857.28;;;4.12;64.18
49709;BME280;35601;55.902;13.606;2023-02-10T11:26:20;101860.02;;;3.77;63.96
49709;BME280;35601;55.902;13.606;2023-02-10T11:28:44;101857.00;;;4.18;63.04
49709;BME280;35601;55.902;13.606;2023-02-10T11:31:22;101861.76;;;3.99;61.42
49709;BME280;35601;55.902;13.606;2023-02-10T11:33:35;101853.88;;;3.82;61.11
49709;BME280;35601;55.902;13.606;2023-02-10T11:36:04;101856.80;;;3.81;61.34
49709;BME280;35601;55.902;13.606;2023-02-10T11:38:26;101853.80;;;3.92;61.01
49709;BME280;35601;55.902;13.606;2023-02-10T11:40:52;101857.61;;;4.03;59.95
49709;BME280;35601;55.902;13.606;2023-02-10T11:43:17;101851.20;;;3.63;59.51
49709;BME280;35601;55.902;13.606;2023-02-10T11:45:51;101843.38;;;4.15;59.88
49709;BME280;35601;55.902;13.606;2023-02-10T11:48:15;101845.94;;;4.01;59.53
49709;BME280;35601;55.902;13.606;2023-02-10T11:50:34;101846.20;;;3.96;60.04
49709;BME280;35601;55.902;13.606;2023-02-10T11:52:58;101846.13;;;3.92;60.39
49709;BME280;35601;55.902;13.606;2023-02-10T11:55:30;101845.34;;;3.77;60.62
49709;BME280;35601;55.902;13.606;2023-02-10T11:57:54;101846.58;;;4.00;60.42
49709;BME280;35601;55.902;13.606;2023-02-10T12:00:19;101843.12;;;3.59;60.95
49709;BME280;35601;55.902;13.606;2023-02-10T12:02:58;101845.21;;;3.47;61.41
49709;BME280;35601;55.902;13.606;2023-02-10T12:05:14;101843.35;;;3.47;61.14
49709;BME280;35601;55.902;13.606;2023-02-10T12:07:41;101843.75;;;3.53;60.89
49709;BME280;35601;55.902;13.606;2023-02-10T12:10:02;101844.46;;;3.57;60.81
49709;BME280;35601;55.902;13.606;2023-02-10T12:12:29;101834.02;;;3.65;60.28
49709;BME280;35601;55.902;13.606;2023-02-10T12:14:54;101829.98;;;3.68;59.99
49709;BME280;35601;55.902;13.606;2023-02-10T12:17:24;101822.99;;;3.63;60.00
49709;BME280;35601;55.902;13.606;2023-02-10T12:19:42;101815.95;;;3.78;59.77
49709;BME280;35601;55.902;13.606;2023-02-10T12:22:07;101817.10;;;2.99;61.59
49709;BME280;35601;55.902;13.606;2023-02-10T12:24:45;101808.08;;;3.49;59.91
49709;BME280;35601;55.902;13.606;2023-02-10T12:26:55;101807.63;;;3.74;57.52
49709;BME280;35601;55.902;13.606;2023-02-10T12:29:29;101804.65;;;3.66;54.45
49709;BME280;35601;55.902;13.606;2023-02-10T12:31:50;101802.47;;;3.58;54.44
49709;BME280;35601;55.902;13.606;2023-02-10T12:34:22;101799.84;;;3.65;53.70
49709;BME280;35601;55.902;13.606;2023-02-10T12:36:40;101794.18;;;3.69;51.54
49709;BME280;35601;55.902;13.606;2023-02-10T12:39:09;101806.67;;;3.61;49.41
49709;BME280;35601;55.902;13.606;2023-02-10T12:41:33;101794.94;;;3.16;49.19